Time;durP1;ratioP1;P1;durP2;ratioP2;P2;SDS_P1;SDS_P2;PMS_P1;PMS_P2;Temp;Humidity;BMP_temperature;BMP_pressure;BME280_temperature;BME280_humidity;BME280_pressure;Samples;Min_cycle;Max_cycle;Signal;HPM_P1;HPM_P2
2023/04/10 00:01:13;;;;;;;9.33;8.00;;;;;;;9.06;67.05;101923.31;5222996;28;20026;-73
2023/04/10 00:03:45;;;;;;;8.87;7.40;;;;;;;9.05;67.18;101911.19;5255115;28;20049;-71
2023/04/10 00:06:16;;;;;;;9.10;7.60;;;;;;;9.02;67.06;101905.97;5223266;28;20363;-73
2023/04/10 00:08:47;;;;;;;11.30;7.53;;;;;;;9.04;66.74;101899.91;5223156;28;20070;-73
2023/04/10 00:11:19;;;;;;;7.73;6.50;;;;;;;9.01;66.65;101891.19;5254790;28;20045;-73
2023/04/10 00:13:50;;;;;;;10.03;7.67;;;;;;;9.01;66.65;101888.59;5223153;28;20423;-73
2023/04/10 00:16:21;;;;;;;9.20;7.57;;;;;;;9.01;66.64;101878.19;5223088;28;20157;-73
2023/04/10 00:18:53;;;;;;;9.03;7.60;;;;;;;8.99;66.52;101874.72;5223116;28;20127;-73
2023/04/10 00:21:25;;;;;;;10.70;6.97;;;;;;;8.99;66.28;101883.38;5222806;28;20524;-73
2023/04/10 00:23:56;;;;;;;9.95;7.47;;;;;;;8.96;66.51;101874.66;5221283;28;20030;-73
2023/04/10 00:26:27;;;;;;;11.90;7.37;;;;;;;9.03;65.76;101873.88;5223027;28;20120;-73
2023/04/10 00:28:59;;;;;;;10.43;7.20;;;;;;;9.02;65.98;101874.75;5223025;28;20439;-73
2023/04/10 00:31:30;;;;;;;9.23;7.27;;;;;;;8.96;66.29;101878.13;5222153;28;20124;-73
2023/04/10 00:34:02;;;;;;;8.87;7.27;;;;;;;8.94;65.99;101866.84;5222896;28;20026;-73
2023/04/10 00:36:34;;;;;;;8.63;7.10;;;;;;;8.92;66.25;101863.38;5222870;28;20048;-74
2023/04/10 00:39:07;;;;;;;12.63;7.28;;;;;;;8.88;66.49;101859.84;5222602;28;20033;-73
2023/04/10 00:41:39;;;;;;;10.43;7.20;;;;;;;8.84;66.60;101857.19;5254427;28;20029;-73
2023/04/10 00:44:10;;;;;;;8.33;7.03;;;;;;;8.84;66.27;101859.78;5222866;28;20034;-73
2023/04/10 00:46:42;;;;;;;10.27;7.47;;;;;;;8.86;65.93;101851.16;5222810;28;20196;-73
2023/04/10 00:49:14;;;;;;;9.70;7.13;;;;;;;8.84;66.15;101850.28;5223064;28;20057;-74
2023/04/10 00:51:46;;;;;;;8.90;6.35;;;;;;;8.76;66.50;101850.19;5222961;28;20041;-73
2023/04/10 00:54:18;;;;;;;10.30;7.35;;;;;;;8.75;66.42;101843.22;5222732;28;20029;-73
2023/04/10 00:56:49;;;;;;;9.97;6.77;;;;;;;8.74;66.09;101843.19;5222764;28;20109;-74
2023/04/10 00:59:21;;;;;;;9.73;7.67;;;;;;;8.78;66.04;101846.72;5222760;28;20120;-74
2023/04/10 01:01:53;;;;;;;9.00;7.27;;;;;;;8.75;66.17;101848.41;5226130;28;20049;-73
2023/04/10 01:04:27;;;;;;;8.93;7.57;;;;;;;8.71;66.22;101850.97;5230387;28;20049;-74
2023/04/10 01:07:07;;;;;;;9.10;7.10;;;;;;;8.71;66.40;101851.84;5234728;28;20045;-73
2023/04/10 01:10:09;;;;;;;9.70;7.93;;;;;;;8.66;66.41;101847.44;5237190;28;20029;-72
2023/04/10 01:12:59;;;;;;;9.88;7.90;;;;;;;8.63;66.75;101845.69;5237078;28;20026;-73
2023/04/10 01:15:41;;;;;;;9.18;6.50;;;;;;;8.60;66.87;101837.84;5239112;28;20033;-73
2023/04/10 01:18:27;;;;;;;8.48;7.25;;;;;;;8.55;67.03;101832.59;5234756;28;20038;-73
2023/04/10 01:21:01;;;;;;;8.68;7.25;;;;;;;8.53;67.29;101833.41;5236969;28;20085;-73
2023/04/10 01:24:03;;;;;;;8.95;7.20;;;;;;;8.52;67.12;101834.28;5232432;28;20200;-72
2023/04/10 01:26:56;;;;;;;13.80;8.07;;;;;;;8.47;67.46;101828.13;5242487;28;20026;-73
2023/04/10 01:29:31;;;;;;;9.75;7.10;;;;;;;8.40;68.03;101830.66;5242439;28;20052;-72
2023/04/10 01:32:10;;;;;;;9.30;7.68;;;;;;;8.38;67.86;101832.34;5242070;28;20030;-74
2023/04/10 01:34:45;;;;;;;8.45;6.53;;;;;;;8.35;67.99;101824.50;5236444;28;20054;-72
2023/04/10 01:37:21;;;;;;;10.15;7.80;;;;;;;8.34;68.37;101827.06;5222506;28;20389;-72
2023/04/10 01:39:59;;;;;;;8.85;7.13;;;;;;;8.26;68.70;101823.50;5220916;28;20405;-72
2023/04/10 01:42:33;;;;;;;8.65;6.90;;;;;;;8.21;69.11;101820.84;5222132;28;20049;-72
2023/04/10 01:45:08;;;;;;;8.75;7.00;;;;;;;8.16;69.33;101822.50;5221731;28;20025;-72
2023/04/10 01:47:39;;;;;;;9.45;7.15;;;;;;;8.12;69.36;101819.00;5221973;28;20519;-72
2023/04/10 01:50:11;;;;;;;10.83;7.50;;;;;;;8.05;69.76;101812.00;5221611;28;20034;-72
2023/04/10 01:52:45;;;;;;;9.30;7.15;;;;;;;8.00;70.12;101813.63;5221437;28;20034;-71
2023/04/10 01:55:17;;;;;;;9.10;6.78;;;;;;;7.96;70.05;101806.66;5221317;28;20041;-71
2023/04/10 01:57:48;;;;;;;8.53;7.10;;;;;;;7.94;70.25;101809.25;5252981;28;20042;-73
2023/04/10 02:00:20;;;;;;;10.37;7.80;;;;;;;7.90;70.30;101802.25;5219638;28;20478;-72
2023/04/10 02:02:51;;;;;;;8.20;6.63;;;;;;;7.88;70.55;101784.91;5221282;28;20116;-73
2023/04/10 02:05:30;;;;;;;9.50;7.73;;;;;;;7.83;70.86;101787.44;5221043;28;20060;-72
2023/04/10 02:08:16;;;;;;;9.70;7.32;;;;;;;7.83;70.71;101787.44;5221313;28;20504;-72
2023/04/10 02:11:01;;;;;;;8.23;6.72;;;;;;;7.83;70.95;101783.09;5220946;28;20037;-72
2023/04/10 02:13:34;;;;;;;10.25;7.38;;;;;;;7.77;70.93;101783.00;5221183;28;20122;-72
2023/04/10 02:16:07;;;;;;;9.02;6.43;;;;;;;7.73;70.99;101769.97;5221293;28;20429;-72
2023/04/10 02:18:41;;;;;;;8.65;7.30;;;;;;;7.73;70.92;101775.16;5224453;28;20390;-72
2023/04/10 02:21:12;;;;;;;11.90;7.65;;;;;;;7.71;71.13;101767.38;5225183;28;20069;-72
2023/04/10 02:23:44;;;;;;;9.17;7.27;;;;;;;7.72;71.06;101770.84;5224966;28;20057;-72
2023/04/10 02:26:15;;;;;;;8.60;6.17;;;;;;;7.69;70.84;101763.00;5225139;28;20369;-72
2023/04/10 02:28:47;;;;;;;7.67;6.87;;;;;;;7.74;70.50;101762.19;5225125;28;20060;-71
2023/04/10 02:31:18;;;;;;;8.50;6.83;;;;;;;7.73;70.48;101757.00;5224746;28;20118;-71
2023/04/10 02:33:50;;;;;;;8.30;6.93;;;;;;;7.75;70.64;101773.47;5225065;28;20052;-71
2023/04/10 02:36:21;;;;;;;8.23;7.10;;;;;;;7.72;70.51;101771.69;5224731;28;20026;-72
2023/04/10 02:38:52;;;;;;;7.77;6.27;;;;;;;7.69;70.30;101763.00;5224877;28;20045;-72
2023/04/10 02:41:24;;;;;;;9.57;7.40;;;;;;;7.72;70.37;101765.66;5224906;28;20041;-72
2023/04/10 02:43:55;;;;;;;7.73;6.60;;;;;;;7.73;70.51;101760.47;5256672;28;20061;-72
2023/04/10 02:46:26;;;;;;;9.43;7.13;;;;;;;7.71;70.48;101756.09;5224763;28;20037;-72
2023/04/10 02:48:58;;;;;;;9.63;7.00;;;;;;;7.77;69.92;101767.44;5224488;28;20112;-72
2023/04/10 02:51:34;;;;;;;11.83;7.07;;;;;;;7.77;69.93;101766.56;5224296;28;20065;-73
2023/04/10 02:54:05;;;;;;;9.02;6.93;;;;;;;7.80;69.67;101762.28;5224461;28;20453;-72
2023/04/10 02:56:36;;;;;;;9.07;6.90;;;;;;;7.77;69.23;101763.97;5224519;28;20025;-72
2023/04/10 02:59:08;;;;;;;8.57;6.90;;;;;;;7.83;69.51;101761.47;5224548;28;20478;-72
2023/04/10 03:01:39;;;;;;;8.20;6.17;;;;;;;7.81;69.48;101758.84;5256060;28;20065;-72
2023/04/10 03:04:10;;;;;;;12.00;7.80;;;;;;;7.76;70.28;101754.44;5224418;28;20037;-71
2023/04/10 03:06:42;;;;;;;9.13;7.20;;;;;;;7.72;70.17;101748.34;5224401;28;20501;-72
2023/04/10 03:09:13;;;;;;;8.73;7.03;;;;;;;7.69;69.85;101753.47;5224393;28;20034;-71
2023/04/10 03:11:45;;;;;;;8.57;6.73;;;;;;;7.66;70.50;101763.81;5224307;28;20029;-71
2023/04/10 03:14:17;;;;;;;9.37;7.07;;;;;;;7.62;70.71;101762.91;5224245;28;20148;-71
2023/04/10 03:16:49;;;;;;;9.00;7.00;;;;;;;7.58;70.80;101775.81;5256057;28;20033;-72
2023/04/10 03:19:20;;;;;;;10.18;7.97;;;;;;;7.47;71.18;101773.94;5224258;28;20030;-71
2023/04/10 03:21:52;;;;;;;8.80;7.40;;;;;;;7.46;71.58;101771.31;5224147;28;20032;-72
2023/04/10 03:24:23;;;;;;;8.87;6.70;;;;;;;7.40;71.71;101777.25;5224135;28;20113;-72
2023/04/10 03:26:55;;;;;;;8.23;6.73;;;;;;;7.37;72.29;101777.19;5224043;28;20033;-72
2023/04/10 03:29:27;;;;;;;8.90;7.32;;;;;;;7.30;72.69;101772.78;5222510;28;20054;-72
2023/04/10 03:31:58;;;;;;;10.67;7.67;;;;;;;7.29;72.71;101765.84;5222379;28;20037;-72
2023/04/10 03:34:29;;;;;;;8.93;6.97;;;;;;;7.23;73.14;101769.22;5222704;28;20030;-72
2023/04/10 03:37:01;;;;;;;8.77;7.30;;;;;;;7.18;73.34;101763.09;5222812;28;20469;-71
2023/04/10 03:39:33;;;;;;;10.60;8.07;;;;;;;7.17;73.59;101761.31;5222619;28;20033;-72
2023/04/10 03:42:04;;;;;;;9.60;7.80;;;;;;;7.12;73.68;101747.41;5222651;28;20026;-72
2023/04/10 03:44:36;;;;;;;10.00;7.90;;;;;;;7.04;73.95;101749.00;5222578;28;20038;-72
2023/04/10 03:47:08;;;;;;;9.80;7.73;;;;;;;7.04;73.97;101751.59;5222277;28;20129;-72
2023/04/10 03:49:39;;;;;;;9.67;7.70;;;;;;;6.98;74.48;101748.91;5221330;28;20675;-72
2023/04/10 03:52:10;;;;;;;10.00;7.70;;;;;;;6.94;74.18;101743.66;5222528;28;20056;-72
2023/04/10 03:54:42;;;;;;;10.33;7.53;;;;;;;6.93;73.95;101741.03;5222431;28;20038;-72
2023/04/10 03:57:13;;;;;;;10.47;8.50;;;;;;;6.88;74.29;101740.94;5222259;28;20501;-72
2023/04/10 03:59:44;;;;;;;9.93;7.80;;;;;;;6.82;74.77;101738.25;5222011;28;20041;-73
2023/04/10 04:02:16;;;;;;;12.27;8.87;;;;;;;6.82;74.60;101739.97;5222452;28;20034;-72
2023/04/10 04:04:47;;;;;;;11.77;8.90;;;;;;;6.77;75.07;101732.09;5222281;28;20034;-72
2023/04/10 04:07:19;;;;;;;9.60;8.30;;;;;;;6.72;75.10;101724.25;5222265;28;20041;-72
2023/04/10 04:09:50;;;;;;;10.70;7.80;;;;;;;6.70;75.24;101730.25;5222221;28;20030;-72
2023/04/10 04:12:21;;;;;;;10.77;8.77;;;;;;;6.66;75.14;101728.44;5222293;28;20061;-72
2023/04/10 04:14:53;;;;;;;10.10;8.10;;;;;;;6.64;75.52;101724.97;5222006;28;20470;-72
2023/04/10 04:17:24;;;;;;;12.73;9.17;;;;;;;6.64;75.38;101718.06;5221954;28;20140;-72
2023/04/10 04:19:55;;;;;;;14.27;9.13;;;;;;;6.65;75.29;101718.91;5221800;28;20034;-72
2023/04/10 04:22:27;;;;;;;10.37;8.67;;;;;;;6.64;75.41;101719.78;5222113;28;20038;-72
2023/04/10 04:24:58;;;;;;;11.53;8.77;;;;;;;6.60;75.57;101723.16;5221930;28;20030;-72
2023/04/10 04:27:29;;;;;;;11.93;8.90;;;;;;;6.57;76.57;101719.66;5178725;28;1247253;-72
2023/04/10 04:30:02;;;;;;;10.17;8.50;;;;;;;6.61;75.95;101706.78;5222210;28;20046;-72
2023/04/10 04:32:33;;;;;;;12.07;8.32;;;;;;;6.64;75.79;101712.00;5222375;28;20042;-72
2023/04/10 04:35:05;;;;;;;9.67;8.43;;;;;;;6.65;75.94;101712.03;5222726;28;20042;-72
2023/04/10 04:37:36;;;;;;;11.00;8.63;;;;;;;6.63;76.20;101711.13;5222530;28;20030;-72
2023/04/10 04:40:08;;;;;;;10.67;8.17;;;;;;;6.63;76.51;101713.72;5221630;28;20689;-72
2023/04/10 04:42:39;;;;;;;12.80;8.30;;;;;;;6.61;76.64;101705.03;5222418;28;20030;-72
2023/04/10 04:45:11;;;;;;;12.47;9.00;;;;;;;6.62;77.02;101708.50;5222203;28;20030;-72
2023/04/10 04:47:43;;;;;;;11.73;8.60;;;;;;;6.55;76.95;101703.22;5222173;28;20517;-72
2023/04/10 04:50:14;;;;;;;10.53;8.30;;;;;;;6.57;77.36;101704.13;5221992;28;20061;-72
2023/04/10 04:52:45;;;;;;;10.20;8.63;;;;;;;6.55;77.44;101699.75;5221127;28;20163;-72
2023/04/10 04:55:17;;;;;;;10.93;8.93;;;;;;;6.54;78.01;101698.88;5221929;28;20394;-72
2023/04/10 04:57:48;;;;;;;11.63;8.73;;;;;;;6.54;77.79;101703.19;5220855;28;20515;-72
2023/04/10 05:00:20;;;;;;;11.40;9.07;;;;;;;6.50;78.30;101702.25;5221463;28;20041;-72
2023/04/10 05:02:51;;;;;;;10.50;8.87;;;;;;;6.54;77.79;101698.88;5222052;28;20381;-72
2023/04/10 05:05:22;;;;;;;10.70;8.40;;;;;;;6.51;77.83;101691.06;5221968;28;20088;-72
2023/04/10 05:07:54;;;;;;;10.30;8.47;;;;;;;6.50;77.97;101694.47;5221866;28;20084;-72
2023/04/10 05:10:25;;;;;;;11.03;9.30;;;;;;;6.48;78.16;101693.59;5222234;28;20568;-72
2023/04/10 05:12:57;;;;;;;10.70;9.30;;;;;;;6.51;78.30;101692.78;5221748;28;20049;-72
2023/04/10 05:15:28;;;;;;;9.97;8.67;;;;;;;6.50;78.24;101675.47;5221722;28;20029;-72
2023/04/10 05:17:59;;;;;;;10.03;8.77;;;;;;;6.53;78.34;101681.59;5221669;28;20063;-72
2023/04/10 05:20:33;;;;;;;9.60;8.60;;;;;;;6.54;78.40;101678.16;5221559;28;20045;-72
2023/04/10 05:23:05;;;;;;;10.18;8.90;;;;;;;6.58;77.75;101676.50;5221742;28;20034;-72
2023/04/10 05:25:36;;;;;;;15.03;10.37;;;;;;;6.60;77.35;101671.34;5221572;28;20030;-72
2023/04/10 05:28:07;;;;;;;14.07;9.60;;;;;;;6.69;77.04;101668.91;5221297;28;20054;-72
2023/04/10 05:30:39;;;;;;;9.70;8.00;;;;;;;6.74;76.98;101664.69;5220996;28;20033;-72
2023/04/10 05:33:10;;;;;;;9.97;8.50;;;;;;;6.81;76.47;101673.44;5253148;28;20033;-72
2023/04/10 05:35:41;;;;;;;11.53;8.67;;;;;;;6.85;75.72;101668.31;5221478;28;20032;-72
2023/04/10 05:38:13;;;;;;;11.07;8.37;;;;;;;6.93;75.29;101671.91;5221408;28;20053;-72
2023/04/10 05:40:44;;;;;;;10.50;8.20;;;;;;;6.99;75.04;101676.34;5221226;28;20022;-72
2023/04/10 05:43:16;;;;;;;12.60;8.97;;;;;;;7.07;74.17;101673.88;5221274;28;20523;-72
2023/04/10 05:45:47;;;;;;;9.90;8.27;;;;;;;7.10;73.89;101671.34;5220067;28;20026;-72
2023/04/10 05:48:19;;;;;;;11.77;7.90;;;;;;;7.19;72.98;101666.28;5221258;28;20029;-72
2023/04/10 05:50:51;;;;;;;9.93;8.60;;;;;;;7.27;72.92;101664.66;5221127;28;20029;-72
2023/04/10 05:53:30;;;;;;;10.88;8.45;;;;;;;7.35;72.41;101669.09;5221084;28;20045;-71
2023/04/10 05:56:01;;;;;;;8.43;7.18;;;;;;;7.44;71.68;101674.44;5221062;28;20030;-71
2023/04/10 05:58:32;;;;;;;9.50;7.43;;;;;;;7.51;70.61;101677.97;5221058;28;20033;-71
2023/04/10 06:01:04;;;;;;;9.07;7.63;;;;;;;7.60;70.98;101689.38;5220210;28;20034;-71
2023/04/10 06:03:35;;;;;;;9.63;7.73;;;;;;;7.67;70.24;101682.53;5220999;28;20030;-70
2023/04/10 06:06:07;;;;;;;8.70;7.80;;;;;;;7.76;69.73;101681.75;5220622;28;20497;-71
2023/04/10 06:08:39;;;;;;;9.63;8.10;;;;;;;7.81;69.86;101683.59;5220983;28;20036;-70
2023/04/10 06:11:10;;;;;;;9.73;8.10;;;;;;;7.93;68.96;101685.47;5220883;28;20029;-71
2023/04/10 06:13:42;;;;;;;9.67;8.23;;;;;;;8.00;68.78;101681.22;5220960;28;20521;-71
2023/04/10 06:16:16;;;;;;;12.07;8.27;;;;;;;8.07;68.63;101676.97;5219371;28;20112;-71
2023/04/10 06:18:51;;;;;;;9.88;8.10;;;;;;;8.17;67.72;101684.88;5219096;28;20026;-72
2023/04/10 06:21:22;;;;;;;10.77;8.02;;;;;;;8.27;67.08;101679.81;5238404;28;20057;-70
2023/04/10 06:23:53;;;;;;;8.47;7.37;;;;;;;8.34;66.91;101679.00;5240679;28;20206;-70
2023/04/10 06:26:25;;;;;;;11.10;7.60;;;;;;;8.42;65.82;101668.69;5238712;28;20393;-72
2023/04/10 06:28:56;;;;;;;9.47;7.47;;;;;;;8.49;64.97;101666.22;5239541;28;20405;-71
2023/04/10 06:31:31;;;;;;;8.33;7.20;;;;;;;8.60;64.28;101657.63;5239292;28;20041;-71
2023/04/10 06:34:02;;;;;;;10.02;7.68;;;;;;;8.68;63.20;101656.88;5239310;28;20037;-70
2023/04/10 06:36:34;;;;;;;9.57;6.73;;;;;;;8.79;63.72;101653.47;5239844;28;20418;-70
2023/04/10 06:39:06;;;;;;;8.45;7.03;;;;;;;8.87;63.15;101652.69;5238905;28;20033;-70
2023/04/10 06:41:37;;;;;;;11.60;8.60;;;;;;;8.93;63.45;101642.34;5237564;28;20037;-70
2023/04/10 06:44:08;;;;;;;8.53;7.13;;;;;;;9.00;62.07;101634.56;5240229;28;20592;-70
2023/04/10 06:46:40;;;;;;;9.97;7.07;;;;;;;9.06;62.31;101632.03;5233986;28;20478;-70
2023/04/10 06:49:11;;;;;;;9.00;6.83;;;;;;;9.11;61.59;101632.91;5242198;28;20037;-70
2023/04/10 06:51:44;;;;;;;10.87;7.20;;;;;;;9.20;61.46;101622.59;5240066;28;20037;-71
2023/04/10 06:54:16;;;;;;;9.38;6.85;;;;;;;9.25;60.62;101620.00;5238682;28;20030;-70
2023/04/10 06:56:47;;;;;;;9.00;6.90;;;;;;;9.35;61.15;101620.94;5239830;28;20029;-71
2023/04/10 06:59:19;;;;;;;10.00;7.50;;;;;;;9.38;60.31;101602.75;5238821;28;20030;-71
2023/04/10 07:01:50;;;;;;;11.43;7.40;;;;;;;9.41;60.03;101608.81;5234011;28;20036;-70
2023/04/10 07:04:22;;;;;;;7.53;6.43;;;;;;;9.42;59.63;101600.16;5243538;28;20040;-69
2023/04/10 07:06:53;;;;;;;8.83;7.20;;;;;;;9.46;59.29;101606.25;5243173;28;20042;-70
2023/04/10 07:09:27;;;;;;;8.10;6.33;;;;;;;9.46;59.32;101591.50;5241416;28;20095;-69
2023/04/10 07:11:59;;;;;;;8.45;6.78;;;;;;;9.53;59.49;101594.13;5242239;28;20117;-69
2023/04/10 07:14:32;;;;;;;8.43;6.50;;;;;;;9.58;58.81;101587.19;5244053;28;20038;-69
2023/04/10 07:17:03;;;;;;;11.88;7.20;;;;;;;9.66;58.98;101585.53;5242184;28;20045;-69
2023/04/10 07:19:36;;;;;;;8.33;6.63;;;;;;;9.70;58.12;101586.41;5244000;28;20022;-70
2023/04/10 07:22:07;;;;;;;;;;;;;;;9.84;58.15;101588.19;5243508;28;20025;-68
2023/04/10 07:24:39;;;;;;;8.25;6.80;;;;;;;9.80;58.07;101576.00;5242265;28;20224;-69
2023/04/10 07:27:11;;;;;;;10.50;7.23;;;;;;;9.83;57.50;101576.00;5242472;28;20488;-69
2023/04/10 07:29:43;;;;;;;9.32;6.80;;;;;;;9.83;57.23;101565.59;5244114;28;20546;-69
2023/04/10 07:32:14;;;;;;;9.10;7.20;;;;;;;9.98;57.71;101559.59;5237092;28;20021;-69
2023/04/10 07:34:46;;;;;;;10.77;7.80;;;;;;;10.02;56.85;101566.53;5245611;28;20538;-70
2023/04/10 07:37:17;;;;;;;13.43;7.13;;;;;;;10.04;56.35;101563.91;5242988;28;20040;-69
2023/04/10 07:39:48;;;;;;;8.23;6.80;;;;;;;10.15;56.61;101556.13;5240822;28;20067;-69
2023/04/10 07:42:20;;;;;;;7.83;6.70;;;;;;;10.34;56.99;101551.84;5242963;28;20041;-69
2023/04/10 07:44:52;;;;;;;7.90;6.60;;;;;;;10.36;55.68;101555.31;5241726;28;20034;-69
2023/04/10 07:47:23;;;;;;;8.73;6.70;;;;;;;10.46;55.72;101546.63;5241137;28;20064;-68
2023/04/10 07:49:55;;;;;;;10.03;6.57;;;;;;;10.55;55.68;101535.34;5243231;28;20472;-69
2023/04/10 07:52:26;;;;;;;7.93;6.73;;;;;;;10.71;54.49;101530.97;5242706;28;20029;-69
2023/04/10 07:55:01;;;;;;;7.07;5.87;;;;;;;10.94;54.24;101530.91;5241371;28;20029;-69
2023/04/10 07:57:32;;;;;;;9.40;6.55;;;;;;;11.05;53.25;101526.53;5241156;28;20022;-69
2023/04/10 08:00:04;;;;;;;7.83;5.77;;;;;;;11.42;53.28;101525.56;5242943;28;20041;-69
2023/04/10 08:02:36;;;;;;;8.38;6.25;;;;;;;11.78;52.52;101518.38;5239675;28;20026;-69
2023/04/10 08:05:07;;;;;;;9.17;6.90;;;;;;;12.02;51.94;101506.94;5243678;28;20029;-69
2023/04/10 08:07:39;;;;;;;7.50;5.87;;;;;;;12.22;50.81;101505.06;5241349;28;20026;-69
2023/04/10 08:10:10;;;;;;;8.93;6.60;;;;;;;12.35;50.27;101499.72;5242921;28;20033;-69
2023/04/10 08:12:42;;;;;;;11.30;6.30;;;;;;;12.25;50.28;101505.91;5241304;28;20053;-68
2023/04/10 08:15:13;;;;;;;6.67;5.60;;;;;;;12.30;50.28;101507.59;5241979;28;20376;-69
2023/04/10 08:17:45;;;;;;;6.23;5.30;;;;;;;12.26;50.20;101500.66;5242453;28;20034;-69
2023/04/10 08:20:16;;;;;;;13.13;6.20;;;;;;;12.32;49.95;101505.84;5241915;28;20033;-68
2023/04/10 08:22:47;;;;;;;7.77;6.37;;;;;;;12.27;50.28;101496.28;5242723;28;20381;-69
2023/04/10 08:25:19;;;;;;;7.17;5.50;;;;;;;12.31;49.79;101491.03;5243242;28;20534;-69
2023/04/10 08:27:50;;;;;;;9.80;6.47;;;;;;;12.44;49.92;101501.38;5242655;28;20052;-69
2023/04/10 08:30:22;;;;;;;6.67;5.57;;;;;;;12.43;49.72;101495.28;5242265;28;20025;-69
2023/04/10 08:32:53;;;;;;;8.63;5.17;;;;;;;12.61;50.18;101499.47;5242561;28;20037;-69
2023/04/10 08:35:24;;;;;;;9.73;6.33;;;;;;;12.61;49.06;101496.00;5242423;28;20066;-69
2023/04/10 08:37:56;;;;;;;7.07;5.67;;;;;;;12.81;49.54;101485.31;5240952;28;20033;-69
2023/04/10 08:40:27;;;;;;;7.30;6.37;;;;;;;12.84;48.93;101493.13;5242593;28;20532;-69
2023/04/10 08:42:59;;;;;;;7.53;6.17;;;;;;;12.83;48.85;101483.56;5241073;28;20120;-69
2023/04/10 08:45:31;;;;;;;8.43;5.78;;;;;;;12.85;49.12;101484.41;5241452;28;20048;-69
2023/04/10 08:48:04;;;;;;;7.03;5.67;;;;;;;12.74;49.12;101472.31;5242015;28;20041;-69
2023/04/10 08:50:40;;;;;;;8.25;5.88;;;;;;;12.89;49.60;101473.88;5242323;28;20037;-70
2023/04/10 08:53:13;;;;;;;9.82;5.78;;;;;;;12.98;49.49;101470.31;5242383;28;20040;-69
2023/04/10 08:55:45;;;;;;;7.40;6.07;;;;;;;13.00;49.33;101491.22;5240542;28;20094;-71
2023/04/10 08:58:17;;;;;;;7.63;5.70;;;;;;;13.16;49.59;101477.06;5242764;28;20181;-69
2023/04/10 09:00:49;;;;;;;9.10;5.70;;;;;;;13.29;48.86;101477.78;5241437;28;20206;-69
2023/04/10 09:03:21;;;;;;;7.50;5.85;;;;;;;13.51;49.58;101475.78;5242289;28;20041;-69
2023/04/10 09:05:53;;;;;;;8.83;6.57;;;;;;;13.47;48.39;101479.31;5241812;28;20123;-70
2023/04/10 09:08:25;;;;;;;7.53;6.00;;;;;;;13.61;47.98;101466.88;5240842;28;20057;-69
2023/04/10 09:10:57;;;;;;;7.00;5.73;;;;;;;13.58;48.01;101466.06;5240141;28;20076;-69
2023/04/10 09:13:48;;;;;;;7.03;5.57;;;;;;;13.76;48.26;101463.16;5242344;28;20435;-70
2023/04/10 09:16:28;;;;;;;8.75;5.68;;;;;;;13.85;48.24;101465.66;5241696;28;20052;-69
2023/04/10 09:19:01;;;;;;;8.00;5.20;;;;;;;14.01;47.38;101466.28;5243150;28;20037;-69
2023/04/10 09:21:32;;;;;;;6.22;5.45;;;;;;;14.18;47.47;101452.00;5240961;28;20052;-70
2023/04/10 09:24:04;;;;;;;9.00;6.10;;;;;;;14.18;46.38;101455.53;5240859;28;20455;-69
2023/04/10 09:26:35;;;;;;;6.53;5.23;;;;;;;14.18;47.23;101458.16;5241170;28;20166;-70
2023/04/10 09:29:09;;;;;;;9.93;5.57;;;;;;;14.02;47.44;101446.16;5241382;28;20053;-70
2023/04/10 09:31:41;;;;;;;6.03;5.32;;;;;;;14.16;47.68;101448.56;5241317;28;20026;-70
2023/04/10 09:34:17;;;;;;;7.45;5.45;;;;;;;14.06;47.70;101431.28;5241035;28;20036;-69
2023/04/10 09:36:54;;;;;;;8.32;5.32;;;;;;;13.94;47.94;101437.56;5241571;28;20034;-69
2023/04/10 09:39:39;;;;;;;7.78;5.28;;;;;;;14.03;48.38;101429.56;5240814;28;20123;-70
2023/04/10 09:42:11;;;;;;;7.32;5.13;;;;;;;14.04;48.59;101415.56;5242098;28;20373;-69
2023/04/10 09:44:43;;;;;;;8.30;5.53;;;;;;;14.04;48.37;101405.09;5243217;28;20030;-69
2023/04/10 09:47:18;;;;;;;6.97;5.77;;;;;;;14.11;48.26;101401.44;5244132;28;20037;-69
2023/04/10 09:49:51;;;;;;;7.90;6.05;;;;;;;13.92;48.37;101397.41;5249345;28;20028;-68
2023/04/10 09:52:26;;;;;;;6.80;4.68;;;;;;;13.94;48.69;101386.03;5252106;28;20088;-69
2023/04/10 09:54:59;;;;;;;6.47;5.18;;;;;;;14.07;48.78;101389.31;5253883;28;20139;-71
2023/04/10 09:57:32;;;;;;;6.95;5.43;;;;;;;14.16;48.44;101404.00;5253453;28;20034;-69
2023/04/10 10:00:07;;;;;;;6.60;5.47;;;;;;;14.47;48.05;101393.78;5256440;28;20085;-70
2023/04/10 10:02:38;;;;;;;7.68;6.05;;;;;;;14.57;47.17;101405.84;5252460;28;20408;-70
2023/04/10 10:05:10;;;;;;;8.43;5.40;;;;;;;14.71;46.63;101381.13;5252783;28;20030;-70
2023/04/10 10:07:42;;;;;;;7.97;5.27;;;;;;;14.65;46.34;101397.88;5251808;28;20038;-68
2023/04/10 10:10:13;;;;;;;6.07;5.30;;;;;;;14.66;46.36;101390.84;5254810;28;20404;-70
2023/04/10 10:12:50;;;;;;;8.53;4.90;;;;;;;14.86;46.15;101385.16;5254534;28;20105;-69
2023/04/10 10:15:32;;;;;;;5.93;4.75;;;;;;;14.90;46.02;101377.19;5256728;28;20061;-71
2023/04/10 10:18:10;;;;;;;5.35;4.78;;;;;;;15.32;45.79;101363.16;5256455;28;20087;-70
2023/04/10 10:20:44;;;;;;;6.00;4.90;;;;;;;15.81;44.64;101359.38;5242012;28;20048;-70
2023/04/10 10:23:17;;;;;;;6.70;4.38;;;;;;;16.13;43.62;101368.19;5241594;28;20457;-69
2023/04/10 10:25:50;;;;;;;8.55;4.43;;;;;;;15.99;42.59;101358.03;5240975;28;20077;-69
2023/04/10 10:28:22;;;;;;;6.00;4.38;;;;;;;16.65;42.18;101357.13;5240747;28;20050;-69
2023/04/10 10:30:54;;;;;;;5.07;4.32;;;;;;;17.27;41.31;101341.19;5239009;28;20046;-69
2023/04/10 10:33:28;;;;;;;9.73;4.32;;;;;;;17.92;40.46;101349.66;5241381;28;20038;-70
2023/04/10 10:36:00;;;;;;;4.68;3.72;;;;;;;18.37;39.67;101351.56;5240295;28;20033;-70
2023/04/10 10:38:31;;;;;;;5.65;3.80;;;;;;;18.20;38.39;101349.53;5241239;28;20516;-69
2023/04/10 10:41:24;;;;;;;4.43;3.93;;;;;;;18.03;39.11;101331.69;5243383;28;20041;-69
2023/04/10 10:44:15;;;;;;;4.30;3.58;;;;;;;17.80;39.17;101335.06;5244925;28;20357;-69
2023/04/10 10:46:50;;;;;;;8.93;4.80;;;;;;;17.13;39.86;101325.84;5244259;28;20026;-69
2023/04/10 10:49:55;;;;;;;4.43;3.50;;;;;;;17.08;41.18;101318.97;5245452;28;20453;-70
2023/04/10 10:52:39;;;;;;;6.57;4.25;;;;;;;17.20;40.35;101318.59;5244269;28;20025;-70
2023/04/10 10:55:35;;;;;;;5.22;3.65;;;;;;;17.14;40.09;101311.75;5244530;28;20056;-69
2023/04/10 10:58:07;;;;;;;7.20;3.85;;;;;;;17.11;40.30;101295.19;5244300;28;20084;-69
2023/04/10 11:00:51;;;;;;;;;;;;;;;17.28;40.06;101302.56;5239513;28;20041;-70
2023/04/10 11:03:22;;;;;;;6.65;3.83;;;;;;;17.19;39.92;101290.53;5246833;28;19917;-69
2023/04/10 11:05:59;;;;;;;7.07;4.27;;;;;;;17.44;39.78;101301.13;5243791;28;20044;-70
2023/04/10 11:08:46;;;;;;;5.32;3.90;;;;;;;18.02;38.73;101290.38;5243158;28;20433;-70
2023/04/10 11:11:24;;;;;;;6.13;3.65;;;;;;;18.64;37.89;101290.72;5244042;28;20065;-70
2023/04/10 11:13:55;;;;;;;8.27;4.30;;;;;;;18.48;37.23;101277.28;5244478;28;20412;-69
2023/04/10 11:16:31;;;;;;;4.57;3.70;;;;;;;18.59;36.94;101298.84;5242258;28;20026;-69
2023/04/10 11:19:06;;;;;;;7.53;3.70;;;;;;;18.81;36.72;101271.59;5243827;28;20428;-70
2023/04/10 11:22:00;;;;;;;4.82;3.83;;;;;;;18.76;36.86;101274.41;5243365;28;20036;-69
2023/04/10 11:24:53;;;;;;;6.13;3.60;;;;;;;19.15;36.45;101262.34;5242474;28;20026;-69
2023/04/10 11:27:43;;;;;;;5.05;3.80;;;;;;;19.26;36.20;101268.03;5241845;28;20103;-69
2023/04/10 11:30:35;;;;;;;4.00;3.25;;;;;;;18.93;36.22;101255.28;5242777;28;20033;-69
2023/04/10 11:33:06;;;;;;;4.90;3.63;;;;;;;18.67;36.84;101243.06;5243542;28;20113;-69
2023/04/10 11:35:38;;;;;;;8.43;4.17;;;;;;;18.21;37.64;101240.44;5237294;28;20032;-70
2023/04/10 11:38:11;;;;;;;5.27;3.73;;;;;;;18.38;38.36;101239.78;5242289;28;20025;-70
2023/04/10 11:40:53;;;;;;;5.90;3.75;;;;;;;17.81;38.60;101251.56;5242789;28;20037;-69
2023/04/10 11:43:25;;;;;;;5.00;3.93;;;;;;;17.86;39.42;101232.00;5242309;28;20040;-70
2023/04/10 11:46:01;;;;;;;5.90;3.57;;;;;;;17.77;38.98;101229.69;5241278;28;20029;-69
2023/04/10 11:48:33;;;;;;;4.70;3.40;;;;;;;17.56;39.27;101223.41;5243010;28;20537;-70
2023/04/10 11:51:09;;;;;;;4.97;3.83;;;;;;;17.50;39.77;101221.84;5240280;28;20136;-69
2023/04/10 11:53:41;;;;;;;5.68;3.30;;;;;;;17.31;39.99;101228.69;5242965;28;20108;-70
2023/04/10 11:56:18;;;;;;;4.93;3.50;;;;;;;17.45;40.23;101215.00;5242692;28;20389;-70
2023/04/10 11:58:52;;;;;;;6.50;3.20;;;;;;;17.48;40.11;101205.25;5241897;28;20032;-69